createdAt,value
2022-11-24T00:07:39.258Z,2.09
2022-11-24T00:22:29.502Z,2.24
2022-11-24T00:37:19.861Z,2.62
2022-11-24T00:52:11.394Z,2.61
2022-11-24T01:07:02.968Z,1.47
2022-11-24T01:21:53.875Z,1.52
2022-11-24T01:36:44.862Z,1.39
2022-11-24T01:51:41.684Z,1.52
2022-11-24T02:06:35.346Z,1.37
2022-11-24T02:21:26.377Z,1.33
2022-11-24T02:51:14.945Z,1.57
2022-11-24T03:06:05.290Z,1.50
2022-11-24T03:20:55.995Z,1.33
2022-11-24T03:35:46.705Z,1.99
2022-11-24T03:50:36.609Z,1.66
2022-11-24T04:05:27.524Z,2.02
2022-11-24T04:20:18.842Z,2.28
2022-11-24T04:35:09.736Z,1.88
2022-11-24T04:50:01.918Z,1.82
2022-11-24T05:04:52.914Z,1.90
2022-11-24T05:19:43.533Z,2.20
2022-11-24T05:34:34.243Z,2.38
2022-11-24T05:49:24.858Z,2.52
2022-11-24T06:04:15.261Z,2.47
2022-11-24T06:19:06.169Z,2.51
2022-11-24T06:33:57.551Z,3.08
2022-11-24T06:48:48.504Z,2.77
2022-11-24T07:03:39.436Z,2.50
2022-11-24T07:18:30.604Z,2.39
2022-11-24T07:33:21.117Z,1.69
2022-11-24T07:48:12.160Z,1.52
2022-11-24T08:03:03.165Z,1.47
2022-11-24T08:17:53.890Z,1.31
2022-11-24T08:32:44.650Z,1.02
2022-11-24T08:47:35.663Z,0.67
2022-11-24T09:02:27.274Z,0.98
2022-11-24T09:17:17.890Z,0.87
2022-11-24T09:32:09.267Z,0.79
2022-11-24T09:47:04.153Z,1.00
2022-11-24T10:01:58.146Z,1.49
2022-11-24T10:17:26.256Z,1.63
2022-11-24T10:32:24.664Z,1.83
2022-11-24T10:47:16.667Z,1.67
2022-11-24T11:02:14.871Z,1.70
2022-11-24T11:17:33.687Z,2.20
2022-11-24T11:47:22.624Z,2.33
2022-11-24T12:02:53.838Z,2.00
2022-11-24T12:18:33.012Z,2.13
2022-11-24T12:33:23.530Z,1.69
2022-11-24T12:48:29.208Z,1.80
2022-11-24T13:03:23.948Z,1.80
2022-11-24T13:18:43.146Z,2.93
2022-11-24T13:33:40.340Z,2.27
2022-11-24T13:48:31.931Z,1.90
2022-11-24T14:03:32.552Z,1.80
2022-11-24T14:18:26.996Z,2.49
2022-11-24T14:48:19.667Z,1.51
2022-11-24T15:03:16.774Z,1.94
2022-11-24T15:18:25.398Z,1.66
2022-11-24T15:33:21.148Z,2.20
2022-11-24T15:48:17.559Z,2.40
2022-11-24T16:03:18.004Z,3.09
2022-11-24T16:17:52.715Z,2.47
2022-11-24T16:32:42.860Z,9.79
2022-11-24T16:47:32.888Z,8.23
2022-11-24T17:02:23.826Z,3.04
2022-11-24T17:17:14.251Z,3.36
2022-11-24T17:32:05.938Z,2.87
2022-11-24T17:46:58.248Z,3.29
2022-11-24T18:01:48.931Z,3.40
2022-11-24T18:16:39.648Z,3.89
2022-11-24T18:31:30.864Z,4.23
2022-11-24T18:46:22.345Z,3.37
2022-11-24T19:01:15.354Z,3.13
2022-11-24T19:16:11.938Z,3.44
2022-11-24T19:31:06.004Z,4.64
2022-11-24T19:45:55.993Z,4.42
2022-11-24T20:00:46.617Z,4.27
2022-11-24T20:15:37.566Z,4.88
2022-11-24T20:30:28.666Z,4.72
2022-11-24T20:45:18.459Z,4.53
2022-11-24T21:00:08.458Z,5.17
2022-11-24T21:14:59.129Z,5.60
2022-11-24T21:29:49.127Z,5.84
2022-11-24T21:44:39.461Z,5.90
2022-11-24T21:59:29.251Z,6.41
2022-11-24T22:14:19.330Z,6.26
2022-11-24T22:29:09.914Z,6.92
2022-11-24T22:44:00.588Z,5.20
2022-11-24T22:58:50.729Z,6.71
2022-11-24T23:13:40.320Z,6.18
2022-11-24T23:28:30.805Z,6.88
2022-11-24T23:43:20.262Z,7.34
2022-11-24T23:58:09.901Z,7.34
